Time;durP1;ratioP1;P1;durP2;ratioP2;P2;SDS_P1;SDS_P2;PMS_P1;PMS_P2;Temp;Humidity;BMP_temperature;BMP_pressure;BME280_temperature;BME280_humidity;BME280_pressure;Samples;Min_cycle;Max_cycle;Signal;HPM_P1;HPM_P2
2023/09/27 00:01:24;;;;;;;26.75;25.15;;;;;;;15.84;100.00;101588.41;5054027;28;20044;-75
2023/09/27 00:03:51;;;;;;;28.20;26.60;;;;;;;15.89;100.00;101590.44;5056489;28;20050;-75
2023/09/27 00:06:18;;;;;;;25.52;23.92;;;;;;;16.10;100.00;101584.66;5061275;28;20052;-75
2023/09/27 00:08:46;;;;;;;27.90;26.10;;;;;;;16.22;100.00;101584.75;5057312;28;20047;-75
2023/09/27 00:11:13;;;;;;;24.83;23.23;;;;;;;15.98;100.00;101579.22;5056882;28;20140;-75
2023/09/27 00:13:40;;;;;;;26.95;25.35;;;;;;;15.72;100.00;101580.25;5062534;28;20048;-74
2023/09/27 00:16:07;;;;;;;26.42;24.83;;;;;;;15.91;100.00;101570.41;5051709;28;20549;-74
2023/09/27 00:18:34;;;;;;;28.60;26.90;;;;;;;16.22;100.00;101568.66;5062900;28;20044;-74
2023/09/27 00:21:01;;;;;;;27.50;25.90;;;;;;;16.31;100.00;101571.84;5055515;28;20510;-75
2023/09/27 00:23:28;;;;;;;27.60;26.00;;;;;;;16.18;100.00;101565.59;5056013;28;20048;-75
2023/09/27 00:25:56;;;;;;;28.10;26.40;;;;;;;16.18;100.00;101565.59;5032143;28;20045;-74
2023/09/27 00:28:23;;;;;;;28.50;26.80;;;;;;;16.35;100.00;101565.84;5021650;28;20050;-75
2023/09/27 00:30:50;;;;;;;28.75;27.05;;;;;;;16.23;100.00;101563.06;5029021;28;20060;-74
2023/09/27 00:33:17;;;;;;;28.30;26.70;;;;;;;16.27;100.00;101564.25;5028641;28;20747;-74
2023/09/27 00:35:48;;;;;;;29.67;27.63;;;;;;;16.25;100.00;101563.69;5030407;28;20438;-74
2023/09/27 00:38:15;;;;;;;33.10;31.10;;;;;;;16.42;100.00;101558.53;5021122;28;20053;-75
2023/09/27 00:40:47;;;;;;;31.45;29.75;;;;;;;16.90;100.00;101554.25;5030042;28;20060;-75
2023/09/27 00:43:27;;;;;;;29.63;27.63;;;;;;;16.83;100.00;101546.28;5025906;28;20050;-75
2023/09/27 00:45:55;;;;;;;28.08;26.48;;;;;;;16.75;100.00;101554.63;5030703;28;20049;-75
2023/09/27 00:48:22;;;;;;;33.92;32.08;;;;;;;16.86;100.00;101558.44;5027771;28;20045;-75
2023/09/27 00:50:49;;;;;;;32.17;30.38;;;;;;;16.83;100.00;101548.97;5026274;28;20499;-74
2023/09/27 00:53:16;;;;;;;31.55;29.55;;;;;;;16.75;100.00;101546.56;5025145;28;20137;-75
2023/09/27 00:55:43;;;;;;;31.33;29.55;;;;;;;16.76;100.00;101544.72;5029687;28;20582;-74
2023/09/27 00:58:11;;;;;;;29.38;27.67;;;;;;;16.77;100.00;101551.75;5023796;28;20048;-74
2023/09/27 01:00:39;;;;;;;28.50;26.75;;;;;;;16.76;100.00;101555.47;5030278;28;20057;-74
2023/09/27 01:03:07;;;;;;;33.35;31.45;;;;;;;16.70;100.00;101549.09;5029567;28;20051;-74
2023/09/27 01:05:35;;;;;;;33.60;31.80;;;;;;;16.65;100.00;101547.13;5025511;28;20063;-75
2023/09/27 01:08:02;;;;;;;31.15;29.45;;;;;;;16.67;100.00;101546.88;5024227;28;20435;-75
2023/09/27 01:10:30;;;;;;;37.28;35.40;;;;;;;16.74;100.00;101544.13;5028162;28;20546;-75
2023/09/27 01:12:57;;;;;;;43.88;41.85;;;;;;;16.81;100.00;101544.88;5029012;28;20045;-74
2023/09/27 01:15:24;;;;;;;48.20;45.90;;;;;;;16.81;100.00;101543.00;5028802;28;20076;-75
2023/09/27 01:17:55;;;;;;;48.30;46.00;;;;;;;16.72;100.00;101544.34;5025210;28;20049;-74
2023/09/27 01:20:22;;;;;;;40.90;38.80;;;;;;;16.69;100.00;101539.44;5025932;28;20057;-74
2023/09/27 01:22:56;;;;;;;40.72;38.80;;;;;;;16.53;100.00;101543.56;5029191;28;20523;-73
2023/09/27 01:25:26;;;;;;;46.55;44.45;;;;;;;16.22;100.00;101541.88;5025029;28;20045;-74
2023/09/27 01:27:53;;;;;;;54.72;52.30;;;;;;;16.06;100.00;101543.25;5026604;28;20057;-74
2023/09/27 01:30:20;;;;;;;44.10;41.90;;;;;;;16.04;100.00;101540.00;5028675;28;20061;-74
2023/09/27 01:32:47;;;;;;;40.42;38.50;;;;;;;15.74;100.00;101537.19;5028445;28;20046;-74
2023/09/27 01:35:14;;;;;;;42.10;40.00;;;;;;;15.73;100.00;101547.09;5027784;28;20046;-74
2023/09/27 01:37:41;;;;;;;38.10;36.22;;;;;;;15.48;100.00;101548.91;5025113;28;20060;-74
2023/09/27 01:40:14;;;;;;;42.92;40.83;;;;;;;15.48;100.00;101544.38;5026424;28;20049;-75
2023/09/27 01:42:43;;;;;;;43.85;41.72;;;;;;;14.88;100.00;101551.97;5028632;28;20060;-73
2023/09/27 01:45:11;;;;;;;46.05;43.88;;;;;;;15.16;100.00;101540.91;5024048;28;20061;-76
2023/09/27 01:47:38;;;;;;;41.20;39.17;;;;;;;15.39;100.00;101551.03;5028740;28;20187;-75
2023/09/27 01:50:07;;;;;;;36.05;34.25;;;;;;;15.20;100.00;101549.34;5027077;28;20045;-75
2023/09/27 01:52:33;;;;;;;40.33;38.22;;;;;;;15.12;100.00;101553.88;5028755;28;20127;-75
2023/09/27 01:55:00;;;;;;;33.20;31.40;;;;;;;14.95;100.00;101558.13;5024539;28;20052;-75
2023/09/27 01:57:28;;;;;;;34.38;32.65;;;;;;;14.86;100.00;101559.41;5025726;28;20049;-75
2023/09/27 01:59:55;;;;;;;42.00;40.00;;;;;;;15.01;100.00;101561.81;5024106;28;20057;-75
2023/09/27 02:02:22;;;;;;;61.60;58.65;;;;;;;14.99;100.00;101566.53;5023418;28;20507;-75
2023/09/27 02:04:49;;;;;;;45.10;43.00;;;;;;;14.78;100.00;101565.00;5028691;28;20049;-75
2023/09/27 02:07:16;;;;;;;53.53;51.13;;;;;;;14.78;100.00;101557.78;5025273;28;20510;-75
2023/09/27 02:09:43;;;;;;;42.97;41.08;;;;;;;14.54;100.00;101564.69;5028689;28;20045;-75
2023/09/27 02:12:09;;;;;;;45.08;42.97;;;;;;;13.95;100.00;101561.13;5028876;28;20511;-74
2023/09/27 02:14:38;;;;;;;48.67;46.38;;;;;;;14.49;100.00;101561.78;5027266;28;20049;-75
2023/09/27 02:17:04;;;;;;;44.88;42.78;;;;;;;14.08;100.00;101554.91;5028872;28;20053;-75
2023/09/27 02:19:31;;;;;;;50.17;47.97;;;;;;;14.49;100.00;101556.44;5026405;28;20046;-75
2023/09/27 02:21:58;;;;;;;83.28;79.57;;;;;;;14.06;100.00;101562.31;5028002;28;20403;-75
2023/09/27 02:24:25;;;;;;;43.22;41.22;;;;;;;14.33;100.00;101560.41;5038144;28;20055;-75
2023/09/27 02:26:53;;;;;;;36.20;34.40;;;;;;;14.06;100.00;101558.81;5060419;28;20076;-75
2023/09/27 02:29:21;;;;;;;26.80;25.10;;;;;;;14.32;100.00;101563.28;5059248;28;20158;-75
2023/09/27 02:31:49;;;;;;;28.15;26.45;;;;;;;14.30;100.00;101565.34;5063560;28;20053;-75
2023/09/27 02:34:16;;;;;;;27.80;26.20;;;;;;;14.34;100.00;101564.72;5058084;28;20044;-75
2023/09/27 02:36:44;;;;;;;26.52;25.15;;;;;;;13.63;100.00;101570.78;5063451;28;20117;-75
2023/09/27 02:39:11;;;;;;;29.20;27.70;;;;;;;13.96;100.00;101562.75;5054828;28;20119;-75
2023/09/27 02:41:38;;;;;;;26.38;25.08;;;;;;;13.63;100.00;101559.28;5062460;28;20521;-75
2023/09/27 02:44:05;;;;;;;24.70;23.17;;;;;;;13.65;100.00;101574.06;5063039;28;20525;-75
2023/09/27 02:46:32;;;;;;;24.83;23.52;;;;;;;13.66;100.00;101567.69;5057514;28;20455;-75
2023/09/27 02:49:01;;;;;;;26.02;24.73;;;;;;;13.37;100.00;101582.25;5052145;28;20111;-75
2023/09/27 02:51:28;;;;;;;26.38;24.98;;;;;;;13.41;100.00;101572.00;5058346;28;20071;-75
2023/09/27 02:53:55;;;;;;;27.20;25.80;;;;;;;13.61;100.00;101575.50;5055200;28;20127;-75
2023/09/27 02:56:24;;;;;;;24.48;22.85;;;;;;;13.58;100.00;101580.41;5060109;28;20076;-75
2023/09/27 02:58:51;;;;;;;23.30;22.10;;;;;;;13.46;100.00;101573.03;5058559;28;20435;-75
2023/09/27 03:01:18;;;;;;;27.20;25.70;;;;;;;13.40;100.00;101576.50;5064378;28;20044;-75
2023/09/27 03:03:46;;;;;;;28.38;26.92;;;;;;;13.54;100.00;101569.34;5057401;28;20045;-75
2023/09/27 03:06:15;;;;;;;28.58;27.08;;;;;;;13.75;100.00;101571.81;5047269;28;20046;-75
2023/09/27 03:08:43;;;;;;;30.50;29.10;;;;;;;13.72;100.00;101571.41;5052013;28;20122;-75
2023/09/27 03:11:10;;;;;;;28.08;26.58;;;;;;;13.59;100.00;101574.06;5048678;28;20058;-75
2023/09/27 03:13:37;;;;;;;27.23;25.83;;;;;;;13.58;100.00;101575.91;5047354;28;20100;-75
2023/09/27 03:16:05;;;;;;;27.13;25.75;;;;;;;13.68;100.00;101572.84;5046448;28;20049;-75
2023/09/27 03:18:32;;;;;;;30.85;29.15;;;;;;;13.69;100.00;101577.16;5045328;28;20044;-75
2023/09/27 03:20:59;;;;;;;25.17;23.77;;;;;;;13.69;100.00;101575.28;5051732;28;20037;-75
2023/09/27 03:23:28;;;;;;;26.15;24.55;;;;;;;13.59;100.00;101574.06;5053529;28;20056;-75
2023/09/27 03:25:55;;;;;;;23.30;22.00;;;;;;;13.66;100.00;101577.56;5048600;28;20048;-75
2023/09/27 03:28:22;;;;;;;24.63;23.23;;;;;;;13.68;100.00;101579.00;5050274;28;20132;-75
2023/09/27 03:30:49;;;;;;;23.17;21.88;;;;;;;13.43;100.00;101581.44;5048159;28;20550;-75
2023/09/27 03:33:16;;;;;;;24.20;22.85;;;;;;;13.82;100.00;101576.31;5049468;28;20049;-75
2023/09/27 03:35:43;;;;;;;23.88;22.58;;;;;;;14.08;100.00;101584.31;5048089;28;20429;-74
2023/09/27 03:38:11;;;;;;;26.48;24.98;;;;;;;14.08;100.00;101573.63;5045379;28;20057;-74
2023/09/27 03:40:41;;;;;;;21.50;20.30;;;;;;;13.76;100.00;101572.63;5047644;28;20052;-74
2023/09/27 03:43:08;;;;;;;22.52;21.25;;;;;;;13.35;100.00;101578.97;5047742;28;20048;-75
2023/09/27 03:45:36;;;;;;;28.83;21.45;;;;;;;13.96;100.00;101575.28;5048392;28;20049;-75
2023/09/27 03:48:03;;;;;;;21.25;20.05;;;;;;;14.26;100.00;101585.50;5046602;28;20049;-76
2023/09/27 03:50:30;;;;;;;21.60;20.45;;;;;;;14.07;100.00;101571.13;5049127;28;20060;-75
2023/09/27 03:52:58;;;;;;;23.90;22.65;;;;;;;14.39;100.00;101580.13;5049075;28;20083;-74
2023/09/27 03:55:27;;;;;;;22.92;21.73;;;;;;;14.44;100.00;101572.31;5046136;28;20045;-74
2023/09/27 03:57:55;;;;;;;22.30;21.00;;;;;;;14.42;100.00;101577.03;5050178;28;20049;-74
2023/09/27 04:00:22;;;;;;;57.72;52.83;;;;;;;14.37;100.00;101584.84;5042687;28;20064;-74
2023/09/27 04:02:49;;;;;;;59.28;54.10;;;;;;;14.09;100.00;101590.47;5040733;28;20049;-74
2023/09/27 04:05:22;;;;;;;60.78;55.42;;;;;;;14.30;100.00;101594.75;5048894;28;20059;-74
2023/09/27 04:07:48;;;;;;;;;;;;;;;14.10;100.00;101597.44;5047508;28;20049;-73
2023/09/27 04:10:17;;;;;;;60.63;55.22;;;;;;;14.05;100.00;101597.25;5049490;28;19921;-74
2023/09/27 04:12:43;;;;;;;20.92;19.52;;;;;;;14.11;100.00;101596.44;5043534;28;20061;-74
2023/09/27 04:15:12;;;;;;;20.08;18.77;;;;;;;13.56;100.00;101604.66;5049427;28;20068;-73
2023/09/27 04:17:39;;;;;;;19.42;18.23;;;;;;;13.59;100.00;101600.75;5042677;28;20492;-74
2023/09/27 04:20:14;;;;;;;18.65;17.40;;;;;;;13.29;100.00;101615.28;5050716;28;20045;-74
2023/09/27 04:22:43;;;;;;;19.92;18.52;;;;;;;13.47;100.00;101608.56;5050786;28;20426;-73
2023/09/27 04:25:12;;;;;;;21.42;20.23;;;;;;;13.77;100.00;101608.97;5038339;28;20492;-74
2023/09/27 04:27:40;;;;;;;21.50;20.20;;;;;;;13.45;100.00;101616.75;5030173;28;20542;-74
2023/09/27 04:30:12;;;;;;;22.08;20.77;;;;;;;14.18;100.00;101615.94;5029260;28;20081;-74
2023/09/27 04:32:42;;;;;;;23.87;22.37;;;;;;;14.42;100.00;101615.25;5028418;28;20056;-73
2023/09/27 04:35:10;;;;;;;23.83;22.42;;;;;;;14.47;100.00;101616.50;5028233;28;20300;-74
2023/09/27 04:37:37;;;;;;;21.67;20.38;;;;;;;14.69;100.00;101611.72;5029623;28;20053;-74
2023/09/27 04:40:06;;;;;;;22.73;21.42;;;;;;;14.66;100.00;101615.63;5026403;28;20044;-75
2023/09/27 04:42:34;;;;;;;23.13;21.83;;;;;;;14.67;100.00;101614.59;5022828;28;20045;-75
2023/09/27 04:45:01;;;;;;;23.70;22.20;;;;;;;14.83;100.00;101608.78;5030193;28;20053;-74
2023/09/27 04:47:27;;;;;;;22.35;20.95;;;;;;;15.01;100.00;101612.63;5028964;28;20115;-74
2023/09/27 04:49:56;;;;;;;24.15;22.48;;;;;;;15.09;100.00;101617.72;5028574;28;20053;-74
2023/09/27 04:52:23;;;;;;;21.23;19.88;;;;;;;15.20;100.00;101616.22;5028379;28;20053;-74
2023/09/27 04:54:55;;;;;;;23.60;22.10;;;;;;;15.28;100.00;101623.97;5029475;28;20057;-74
2023/09/27 04:57:21;;;;;;;23.90;22.33;;;;;;;15.38;100.00;101613.66;5028154;28;20053;-74
2023/09/27 04:59:49;;;;;;;24.10;22.60;;;;;;;15.40;100.00;101613.41;5028377;28;20048;-74
2023/09/27 05:02:16;;;;;;;24.50;22.58;;;;;;;15.56;100.00;101624.44;5019294;28;20053;-74
2023/09/27 05:04:43;;;;;;;24.40;22.58;;;;;;;15.83;100.00;101623.47;5027990;28;20054;-75
2023/09/27 05:07:11;;;;;;;22.63;21.23;;;;;;;15.68;100.00;101619.22;5029057;28;20404;-75
2023/09/27 05:09:38;;;;;;;22.75;21.45;;;;;;;15.66;100.00;101620.44;5026576;28;20060;-74
2023/09/27 05:12:05;;;;;;;22.50;21.10;;;;;;;15.90;100.00;101616.16;5027479;28;20405;-73
2023/09/27 05:14:32;;;;;;;22.85;21.45;;;;;;;16.39;100.00;101620.63;5025211;28;20049;-74
2023/09/27 05:16:59;;;;;;;25.95;24.13;;;;;;;16.70;100.00;101621.53;5027441;28;20057;-74
2023/09/27 05:19:26;;;;;;;24.25;22.65;;;;;;;17.02;100.00;101624.88;5025679;28;20092;-74
2023/09/27 05:21:53;;;;;;;23.25;21.75;;;;;;;17.22;100.00;101624.63;5026911;28;20057;-75
2023/09/27 05:24:23;;;;;;;23.77;21.90;;;;;;;17.38;100.00;101628.53;5033144;28;20135;-75
2023/09/27 05:26:50;;;;;;;24.52;22.92;;;;;;;20.65;100.00;101607.91;5050367;28;20059;-72
2023/09/27 05:29:16;;;;;;;23.10;21.60;;;;;;;22.25;100.00;101611.00;5052096;28;20055;-71
2023/09/27 05:31:44;;;;;;;23.10;21.65;;;;;;;21.34;100.00;101617.31;5050088;28;20532;-71
2023/09/27 05:34:11;;;;;;;22.92;21.52;;;;;;;22.95;100.00;101616.97;5053931;28;20407;-71
2023/09/27 05:36:40;;;;;;;23.23;21.73;;;;;;;21.11;100.00;101623.81;5056878;28;20443;-72
2023/09/27 05:39:08;;;;;;;23.33;21.58;;;;;;;22.38;100.00;101613.22;5054846;28;20437;-71
2023/09/27 05:41:37;;;;;;;21.95;20.48;;;;;;;22.04;100.00;101612.72;5058269;28;20060;-72
2023/09/27 05:44:04;;;;;;;21.92;20.40;;;;;;;20.58;100.00;101624.31;5052387;28;20056;-74
2023/09/27 05:46:33;;;;;;;23.27;21.67;;;;;;;19.21;100.00;101621.06;5053956;28;20445;-74
2023/09/27 05:49:02;;;;;;;23.92;22.42;;;;;;;19.62;100.00;101626.34;5060342;28;20053;-74
2023/09/27 05:51:30;;;;;;;24.00;22.50;;;;;;;19.16;100.00;101623.66;5053292;28;20529;-74
2023/09/27 05:53:58;;;;;;;25.40;23.70;;;;;;;19.59;100.00;101624.94;5057958;28;20559;-75
2023/09/27 05:56:25;;;;;;;23.27;21.88;;;;;;;19.51;100.00;101619.94;5056157;28;20143;-75
2023/09/27 05:58:59;;;;;;;20.90;19.50;;;;;;;19.44;100.00;101630.88;5060265;28;20438;-74
2023/09/27 06:01:26;;;;;;;25.55;20.70;;;;;;;20.09;100.00;101615.22;5062359;28;20140;-75
2023/09/27 06:03:54;;;;;;;20.17;18.77;;;;;;;20.31;100.00;101626.06;5053959;28;20055;-75
2023/09/27 06:06:21;;;;;;;19.48;18.10;;;;;;;20.34;100.00;101617.47;5048584;28;20075;-75
2023/09/27 06:08:48;;;;;;;21.77;20.38;;;;;;;19.59;100.00;101627.63;5051990;28;20044;-74
2023/09/27 06:11:15;;;;;;;21.23;19.92;;;;;;;20.21;100.00;101626.75;5051044;28;20052;-74
2023/09/27 06:13:44;;;;;;;21.35;19.95;;;;;;;20.44;100.00;101628.41;5055942;28;20080;-75
2023/09/27 06:16:17;;;;;;;21.95;20.42;;;;;;;20.24;100.00;101633.50;5053959;28;20140;-74
2023/09/27 06:18:43;;;;;;;;;;;;;;;20.03;100.00;101633.22;5051561;28;20052;-74
2023/09/27 06:21:11;;;;;;;21.92;20.63;;;;;;;20.14;100.00;101639.56;5056551;28;19948;-74
2023/09/27 06:23:38;;;;;;;20.83;19.52;;;;;;;20.07;100.00;101641.63;5054350;28;20547;-74
2023/09/27 06:26:07;;;;;;;21.48;20.17;;;;;;;20.64;100.00;101632.47;5027832;28;20048;-74
2023/09/27 06:28:34;;;;;;;21.20;19.80;;;;;;;20.64;100.00;101632.47;5024793;28;20080;-75
2023/09/27 06:31:03;;;;;;;19.65;18.35;;;;;;;20.86;100.00;101635.16;5022884;28;20500;-74
2023/09/27 06:33:31;;;;;;;21.70;20.33;;;;;;;21.58;100.00;101639.44;5026413;28;20068;-75
2023/09/27 06:36:00;;;;;;;21.15;19.85;;;;;;;21.00;100.00;101631.81;5027405;28;20538;-74
2023/09/27 06:38:27;;;;;;;21.95;20.65;;;;;;;21.67;100.00;101633.28;5024640;28;20104;-74
2023/09/27 06:40:54;;;;;;;21.63;20.33;;;;;;;21.74;100.00;101633.06;5025026;28;20081;-75
2023/09/27 06:43:22;;;;;;;21.50;20.13;;;;;;;21.55;100.00;101629.94;5027172;28;20053;-74
2023/09/27 06:45:49;;;;;;;21.05;19.75;;;;;;;22.08;100.00;101630.06;5026904;28;20056;-74
2023/09/27 06:48:19;;;;;;;21.35;20.05;;;;;;;21.76;100.00;101638.22;5025140;28;20061;-74
2023/09/27 06:50:48;;;;;;;21.27;19.98;;;;;;;21.23;100.00;101638.78;5027914;28;20120;-74
2023/09/27 06:53:15;;;;;;;21.58;19.88;;;;;;;21.43;100.00;101632.00;5024482;28;20567;-75
2023/09/27 06:55:44;;;;;;;20.90;19.30;;;;;;;21.95;100.00;101636.75;5028293;28;20543;-74
2023/09/27 06:58:11;;;;;;;21.00;19.50;;;;;;;22.78;100.00;101623.38;5025734;28;20061;-75
2023/09/27 07:00:41;;;;;;;19.58;17.98;;;;;;;22.06;100.00;101633.03;5027404;28;20053;-74
2023/09/27 07:03:08;;;;;;;20.40;18.90;;;;;;;22.63;100.00;101639.56;5020396;28;20053;-76
2023/09/27 07:05:35;;;;;;;20.98;19.58;;;;;;;22.47;100.00;101636.00;5027277;28;20068;-74
2023/09/27 07:08:04;;;;;;;21.73;20.23;;;;;;;22.69;100.00;101646.63;5025214;28;20049;-75
2023/09/27 07:10:30;;;;;;;21.00;19.60;;;;;;;23.09;100.00;101640.59;5025231;28;20045;-75
2023/09/27 07:12:57;;;;;;;20.67;19.35;;;;;;;22.97;100.00;101642.72;5019391;28;20041;-76
2023/09/27 07:15:24;;;;;;;20.65;19.25;;;;;;;22.86;100.00;101651.84;5029349;28;20061;-75
2023/09/27 07:17:53;;;;;;;20.45;19.08;;;;;;;23.12;100.00;101652.78;5029981;28;20087;-75
2023/09/27 07:20:24;;;;;;;21.13;19.67;;;;;;;23.44;100.00;101649.03;5028405;28;20494;-74
2023/09/27 07:22:54;;;;;;;24.15;22.65;;;;;;;23.40;100.00;101661.50;5027740;28;20053;-75
2023/09/27 07:25:23;;;;;;;21.70;20.40;;;;;;;22.87;100.00;101653.47;5053326;28;20057;-75
2023/09/27 07:27:51;;;;;;;23.00;21.60;;;;;;;22.77;100.00;101661.56;5057407;28;20045;-75
2023/09/27 07:30:23;;;;;;;22.95;21.65;;;;;;;22.98;100.00;101657.09;5060251;28;20044;-75
2023/09/27 07:32:50;;;;;;;20.40;19.10;;;;;;;23.29;100.00;101647.94;5057940;28;20054;-74
2023/09/27 07:35:18;;;;;;;20.10;18.80;;;;;;;23.01;100.00;101648.41;5063958;28;20060;-74
2023/09/27 07:37:45;;;;;;;22.70;21.30;;;;;;;23.83;100.00;101654.78;5055237;28;20589;-74
2023/09/27 07:40:14;;;;;;;24.83;23.23;;;;;;;23.42;100.00;101649.31;5053376;28;20049;-73
2023/09/27 07:42:43;;;;;;;24.23;22.63;;;;;;;23.62;100.00;101653.13;5055413;28;20052;-74
2023/09/27 07:45:20;;;;;;;24.40;22.88;;;;;;;23.28;100.00;101640.88;5051567;28;20052;-74
2023/09/27 07:47:50;;;;;;;26.45;24.08;;;;;;;23.87;100.00;101655.03;5053725;28;20558;-74
2023/09/27 07:50:17;;;;;;;23.42;21.92;;;;;;;24.44;100.00;101645.72;5058390;28;20121;-74
2023/09/27 07:52:44;;;;;;;24.00;22.40;;;;;;;24.64;100.00;101645.66;5058278;28;20052;-75
2023/09/27 07:55:14;;;;;;;23.55;22.00;;;;;;;25.09;100.00;101646.53;5054978;28;20925;-75
2023/09/27 07:57:43;;;;;;;23.35;21.75;;;;;;;24.99;100.00;101643.84;5054728;28;20433;-75
2023/09/27 08:00:15;;;;;;;22.95;21.45;;;;;;;25.08;100.00;101647.63;5051042;28;20127;-75
2023/09/27 08:02:43;;;;;;;22.60;21.20;;;;;;;25.23;100.00;101632.31;5059352;28;20419;-75
2023/09/27 08:05:10;;;;;;;22.95;21.55;;;;;;;25.29;100.00;101644.78;5056703;28;20049;-73
2023/09/27 08:07:37;;;;;;;25.13;23.63;;;;;;;25.27;100.00;101636.13;5052482;28;20060;-72
2023/09/27 08:10:05;;;;;;;23.38;21.98;;;;;;;25.13;100.00;101634.00;5049078;28;20053;-73
2023/09/27 08:12:34;;;;;;;21.88;20.45;;;;;;;25.27;100.00;101633.41;5042135;28;20048;-73
2023/09/27 08:15:04;;;;;;;24.65;23.05;;;;;;;25.91;100.00;101639.69;5051602;28;20044;-73
2023/09/27 08:17:31;;;;;;;24.75;23.25;;;;;;;26.24;100.00;101640.72;5053871;28;20048;-74
2023/09/27 08:19:58;;;;;;;25.17;23.67;;;;;;;26.45;100.00;101633.94;5054439;28;20057;-74
2023/09/27 08:22:25;;;;;;;26.55;24.85;;;;;;;26.41;100.00;101641.03;5047605;28;20052;-73
2023/09/27 08:24:52;;;;;;;29.00;27.20;;;;;;;26.46;100.00;101632.81;5052830;28;20049;-73
2023/09/27 08:27:19;;;;;;;27.25;25.65;;;;;;;27.03;98.42;101626.66;5050107;28;20049;-74
2023/09/27 08:29:46;;;;;;;26.85;25.25;;;;;;;27.18;96.06;101629.19;5055388;28;20422;-73
2023/09/27 08:32:15;;;;;;;26.13;24.52;;;;;;;27.68;92.62;101628.66;5062664;28;20060;-73
2023/09/27 08:34:42;;;;;;;26.23;24.52;;;;;;;27.05;89.00;101617.09;5049933;28;20065;-73
2023/09/27 08:37:11;;;;;;;25.17;23.48;;;;;;;27.79;88.41;101621.94;5052410;28;20056;-73
2023/09/27 08:39:39;;;;;;;25.95;24.25;;;;;;;27.67;95.15;101618.84;5050819;28;20049;-73
2023/09/27 08:42:06;;;;;;;25.98;24.35;;;;;;;27.20;96.00;101610.59;5052806;28;20408;-73
2023/09/27 08:44:34;;;;;;;25.45;23.75;;;;;;;27.64;98.83;101617.53;5055812;28;20062;-73
2023/09/27 08:47:01;;;;;;;24.90;23.40;;;;;;;27.29;93.21;101617.00;5058871;28;20173;-73
2023/09/27 08:49:30;;;;;;;24.73;23.02;;;;;;;26.19;100.00;101622.50;5054271;28;20099;-73
2023/09/27 08:51:57;;;;;;;24.73;23.10;;;;;;;26.90;87.45;101611.84;5055465;28;20044;-73
2023/09/27 08:54:24;;;;;;;27.80;25.10;;;;;;;27.23;85.94;101604.56;5057041;28;20048;-73
2023/09/27 08:56:52;;;;;;;23.63;21.92;;;;;;;27.19;90.92;101603.53;5049977;28;20044;-72
2023/09/27 08:59:20;;;;;;;24.00;22.30;;;;;;;27.43;87.80;101602.63;5055076;28;20075;-73
2023/09/27 09:01:49;;;;;;;22.58;20.95;;;;;;;27.03;89.34;101597.47;5046364;28;20501;-74
2023/09/27 09:04:17;;;;;;;24.45;22.55;;;;;;;27.46;95.65;101602.03;5043941;28;20433;-73
2023/09/27 09:06:45;;;;;;;22.90;21.20;;;;;;;27.63;91.66;101602.28;5058598;28;20056;-73
2023/09/27 09:09:12;;;;;;;23.23;21.48;;;;;;;26.91;100.00;101594.41;5053931;28;20045;-73
2023/09/27 09:11:47;;;;;;;24.08;22.27;;;;;;;27.91;81.86;101596.91;5056207;28;20072;-74
2023/09/27 09:14:17;;;;;;;23.00;21.33;;;;;;;27.82;75.92;101594.84;5057382;28;20505;-74
2023/09/27 09:16:51;;;;;;;22.05;20.45;;;;;;;27.64;91.77;101601.16;5056897;28;20094;-73
2023/09/27 09:19:22;;;;;;;22.10;20.58;;;;;;;27.70;91.06;101590.97;5051913;28;20053;-73
2023/09/27 09:21:57;;;;;;;23.90;22.20;;;;;;;27.64;75.75;101593.78;5053045;28;20505;-73
2023/09/27 09:24:24;;;;;;;24.88;23.08;;;;;;;28.00;72.22;101586.88;5052252;28;20099;-73
2023/09/27 09:27:04;;;;;;;22.02;20.30;;;;;;;28.05;76.99;101587.59;5027767;28;20522;-73
2023/09/27 09:29:45;;;;;;;24.30;22.48;;;;;;;28.30;70.64;101578.09;5023190;28;20480;-73
2023/09/27 09:32:13;;;;;;;23.73;22.13;;;;;;;27.91;92.27;101577.78;5024189;28;20119;-73
2023/09/27 09:34:41;;;;;;;23.65;21.85;;;;;;;28.18;70.68;101582.44;5025959;28;20059;-73
2023/09/27 09:37:18;;;;;;;23.90;22.25;;;;;;;28.36;63.48;101577.97;5025263;28;20045;-73
2023/09/27 09:39:46;;;;;;;26.65;24.48;;;;;;;28.59;72.73;101570.66;5026456;28;20534;-73
2023/09/27 09:42:14;;;;;;;23.35;21.75;;;;;;;28.51;70.80;101572.22;5023546;28;20170;-74
2023/09/27 09:44:41;;;;;;;23.50;21.90;;;;;;;28.45;70.18;101585.19;5026778;28;20041;-73
2023/09/27 09:47:12;;;;;;;23.15;21.55;;;;;;;28.23;61.78;101574.97;5026274;28;20450;-74
2023/09/27 09:49:41;;;;;;;23.10;21.50;;;;;;;28.20;83.14;101566.53;5024015;28;20056;-73
2023/09/27 09:52:13;;;;;;;24.30;22.58;;;;;;;28.68;74.79;101566.91;5023606;28;20077;-73
2023/09/27 09:54:46;;;;;;;23.65;22.05;;;;;;;29.13;60.15;101564.25;5025472;28;20099;-74
2023/09/27 09:57:14;;;;;;;23.35;21.75;;;;;;;28.82;61.04;101571.53;5027203;28;20115;-73
2023/09/27 10:00:11;;;;;;;24.17;22.58;;;;;;;28.97;59.07;101566.50;5018526;28;21382;-73
2023/09/27 10:02:44;;;;;;;22.55;21.05;;;;;;;28.14;83.71;101556.84;5023218;28;20519;-73
2023/09/27 10:05:13;;;;;;;22.58;21.08;;;;;;;28.16;66.55;101549.16;5015687;28;20239;-73
2023/09/27 10:07:42;;;;;;;22.50;21.00;;;;;;;27.43;91.38;101562.50;5022104;28;20057;-73
2023/09/27 10:10:11;;;;;;;23.40;21.90;;;;;;;27.55;96.28;101559.31;5026794;28;20045;-73
2023/09/27 10:12:38;;;;;;;22.35;20.95;;;;;;;28.04;82.16;101550.47;5025082;28;20041;-73
2023/09/27 10:15:08;;;;;;;22.55;20.95;;;;;;;28.64;65.65;101543.25;5027558;28;20050;-73
2023/09/27 10:17:35;;;;;;;22.90;21.40;;;;;;;28.05;77.04;101543.13;5027769;28;20470;-74
2023/09/27 10:20:13;;;;;;;20.55;19.20;;;;;;;27.83;81.04;101552.00;5028255;28;20045;-73
2023/09/27 10:22:41;;;;;;;22.15;20.65;;;;;;;27.97;87.03;101549.28;5027710;28;20469;-74
2023/09/27 10:25:34;;;;;;;23.60;22.00;;;;;;;29.26;58.02;101548.91;5042751;28;20053;-74
2023/09/27 10:28:07;;;;;;;;;;;;;;;28.33;77.55;101532.97;5047716;28;20114;-73
2023/09/27 10:31:07;;;;;;;23.77;22.17;;;;;;;28.19;85.99;101534.91;5056007;28;19964;-73
2023/09/27 10:33:34;;;;;;;23.00;21.50;;;;;;;28.20;64.78;101531.88;4947855;28;20160;-73
2023/09/27 10:36:30;;;;;;;22.40;20.90;;;;;;;28.13;74.13;101519.75;4957940;28;20054;-72
2023/09/27 10:39:07;;;;;;;23.67;22.17;;;;;;;29.23;63.39;101527.63;4973360;28;20048;-72
2023/09/27 10:41:48;;;;;;;25.27;23.67;;;;;;;29.18;55.14;101539.50;5047645;28;20514;-72
2023/09/27 10:44:29;;;;;;;27.35;25.55;;;;;;;28.77;59.16;101528.72;5050609;28;20049;-72
2023/09/27 10:46:57;;;;;;;27.10;25.30;;;;;;;28.02;84.02;101522.69;5051235;28;20048;-72
2023/09/27 10:49:26;;;;;;;25.55;23.95;;;;;;;27.49;88.68;101520.41;5054917;28;20084;-73
2023/09/27 10:51:53;;;;;;;25.52;23.73;;;;;;;29.35;58.24;101521.56;5050271;28;20053;-73
2023/09/27 10:54:23;;;;;;;25.38;23.67;;;;;;;29.42;58.63;101524.69;5056818;28;20072;-72
2023/09/27 10:56:56;;;;;;;25.67;23.42;;;;;;;29.77;44.57;101530.31;5056858;28;20045;-74
2023/09/27 10:59:23;;;;;;;;;;;;;;;29.36;64.19;101521.28;5054049;28;20438;-73
2023/09/27 11:01:51;;;;;;;26.80;25.00;;;;;;;29.51;63.36;101513.78;5058960;28;19940;-74
2023/09/27 11:04:21;;;;;;;25.52;23.83;;;;;;;29.59;48.66;101511.09;5050309;28;20517;-73
2023/09/27 11:06:48;;;;;;;26.42;24.63;;;;;;;29.52;54.00;101512.66;5060498;28;20051;-74
2023/09/27 11:09:19;;;;;;;24.63;22.92;;;;;;;29.89;49.30;101512.16;5059880;28;20055;-74
2023/09/27 11:11:47;;;;;;;24.83;23.13;;;;;;;29.70;49.92;101517.09;5061274;28;20513;-73